createdAt,value
2022-11-06T00:00:38.265Z,8.34
2022-11-06T00:03:07.226Z,8.41
2022-11-06T00:05:54.015Z,8.30
2022-11-06T00:08:32.248Z,8.30
2022-11-06T00:11:00.364Z,8.32
2022-11-06T00:13:30.233Z,8.32
2022-11-06T00:15:58.253Z,8.36
2022-11-06T00:18:28.446Z,8.43
2022-11-06T00:20:56.491Z,8.44
2022-11-06T00:23:24.572Z,8.46
2022-11-06T00:25:56.339Z,8.51
2022-11-06T00:28:24.369Z,8.42
2022-11-06T00:31:04.384Z,8.41
2022-11-06T00:33:33.085Z,8.36
2022-11-06T00:36:03.754Z,8.46
2022-11-06T00:38:31.939Z,8.48
2022-11-06T00:41:04.523Z,8.44
2022-11-06T00:43:33.048Z,8.48
2022-11-06T00:46:04.668Z,8.46
2022-11-06T00:48:32.703Z,8.54
2022-11-06T00:51:04.331Z,8.46
2022-11-06T00:53:32.685Z,8.48
2022-11-06T00:56:06.785Z,8.54
2022-11-06T00:58:35.483Z,8.57
2022-11-06T01:01:16.857Z,8.67
2022-11-06T01:03:48.196Z,8.66
2022-11-06T01:06:20.396Z,8.68
2022-11-06T01:08:49.163Z,8.62
2022-11-06T01:11:19.812Z,8.64
2022-11-06T01:13:50.928Z,8.65
2022-11-06T01:16:20.890Z,8.55
2022-11-06T01:18:49.648Z,8.53
2022-11-06T01:21:20.638Z,8.58
2022-11-06T01:23:53.113Z,8.60
2022-11-06T01:26:37.328Z,8.66
2022-11-06T01:29:08.508Z,8.71
2022-11-06T01:31:38.122Z,8.67
2022-11-06T01:34:06.882Z,8.59
2022-11-06T01:36:35.100Z,8.63
2022-11-06T01:39:06.689Z,8.61
2022-11-06T01:41:38.179Z,8.62
2022-11-06T01:44:28.507Z,8.58
2022-11-06T01:46:58.024Z,8.60
2022-11-06T01:49:28.273Z,8.54
2022-11-06T01:52:01.868Z,8.58
2022-11-06T01:54:35.072Z,8.61
2022-11-06T01:57:05.551Z,8.59
2022-11-06T01:59:37.313Z,8.60
2022-11-06T02:02:07.048Z,8.65
2022-11-06T02:04:39.880Z,8.65
2022-11-06T02:07:08.788Z,8.65
2022-11-06T02:09:37.189Z,8.69
2022-11-06T02:12:18.109Z,8.65
2022-11-06T02:15:12.384Z,8.60
2022-11-06T02:17:58.177Z,8.57
2022-11-06T02:20:36.892Z,8.56
2022-11-06T02:23:29.664Z,8.59
2022-11-06T02:26:15.038Z,8.52
2022-11-06T02:28:52.369Z,8.57
2022-11-06T02:31:26.322Z,8.58
2022-11-06T02:34:01.065Z,8.52
2022-11-06T02:36:35.852Z,8.47
2022-11-06T02:39:11.176Z,8.50
2022-11-06T02:41:45.676Z,8.53
2022-11-06T02:44:21.627Z,8.60
2022-11-06T02:46:54.713Z,8.64
2022-11-06T02:49:29.284Z,8.68
2022-11-06T02:52:02.960Z,8.59
2022-11-06T02:54:35.577Z,8.58
2022-11-06T02:57:09.515Z,8.54
2022-11-06T02:59:49.544Z,8.50
2022-11-06T03:02:25.114Z,8.54
2022-11-06T03:04:59.350Z,8.59
2022-11-06T03:07:35.601Z,8.53
2022-11-06T03:10:04.956Z,8.54
2022-11-06T03:12:40.550Z,8.55
2022-11-06T03:15:19.747Z,8.64
2022-11-06T03:17:53.621Z,8.60
2022-11-06T03:20:30.749Z,8.52
2022-11-06T03:23:06.928Z,8.51
2022-11-06T03:25:44.457Z,8.60
2022-11-06T03:28:19.580Z,8.57
2022-11-06T03:30:54.775Z,8.53
2022-11-06T03:33:32.035Z,8.58
2022-11-06T03:36:08.720Z,8.54
2022-11-06T03:38:42.665Z,8.62
2022-11-06T03:41:17.477Z,8.54
2022-11-06T03:43:48.659Z,8.50
2022-11-06T03:46:25.076Z,8.51
2022-11-06T03:48:59.775Z,8.48
2022-11-06T03:51:35.119Z,8.56
2022-11-06T03:54:07.594Z,8.56
2022-11-06T03:56:41.916Z,8.54
2022-11-06T03:59:11.574Z,8.47
2022-11-06T04:01:46.226Z,8.48
2022-11-06T04:04:19.973Z,8.47
2022-11-06T04:06:54.514Z,8.52
2022-11-06T04:09:44.686Z,8.48
2022-11-06T04:12:34.070Z,8.44
2022-11-06T04:15:03.674Z,8.47
2022-11-06T04:17:33.609Z,8.44
2022-11-06T04:20:08.773Z,8.48
2022-11-06T04:22:52.311Z,8.48
2022-11-06T04:25:52.867Z,8.41
2022-11-06T04:28:33.707Z,8.45
2022-11-06T04:31:10.023Z,8.35
2022-11-06T04:33:51.200Z,8.37
2022-11-06T04:36:29.185Z,8.44
2022-11-06T04:39:07.316Z,8.32
2022-11-06T04:41:42.977Z,8.34
2022-11-06T04:44:18.362Z,8.31
2022-11-06T04:46:53.405Z,8.29
2022-11-06T04:49:24.463Z,8.30
2022-11-06T04:51:52.905Z,8.32
2022-11-06T04:54:21.463Z,8.28
2022-11-06T04:56:49.611Z,8.25
2022-11-06T04:59:19.637Z,8.18
2022-11-06T05:01:48.219Z,8.19
2022-11-06T05:04:16.560Z,8.08
2022-11-06T05:06:46.283Z,8.11
2022-11-06T05:09:14.521Z,8.02
2022-11-06T05:11:42.560Z,8.04
2022-11-06T05:14:10.671Z,8.02
2022-11-06T05:16:38.868Z,8.00
2022-11-06T05:19:07.501Z,8.05
2022-11-06T05:21:53.117Z,8.07
2022-11-06T05:24:22.574Z,8.08
2022-11-06T05:26:56.129Z,8.08
2022-11-06T05:29:27.808Z,7.93
2022-11-06T05:31:55.987Z,7.90
2022-11-06T05:34:24.163Z,7.87
2022-11-06T05:36:52.226Z,7.82
2022-11-06T05:39:21.800Z,7.82
2022-11-06T05:41:49.933Z,7.76
2022-11-06T05:44:18.293Z,7.76
2022-11-06T05:46:49.333Z,7.77
2022-11-06T05:49:18.539Z,7.72
2022-11-06T05:51:47.023Z,7.76
2022-11-06T05:54:16.232Z,7.84
2022-11-06T05:56:45.616Z,7.83
2022-11-06T05:59:13.805Z,7.85
2022-11-06T06:01:42.119Z,7.77
2022-11-06T06:04:10.225Z,7.69
2022-11-06T06:06:39.282Z,7.64
2022-11-06T06:09:07.678Z,7.60
2022-11-06T06:11:36.088Z,7.59
2022-11-06T06:14:05.793Z,7.58
2022-11-06T06:16:34.065Z,7.67
2022-11-06T06:19:02.358Z,7.70
2022-11-06T06:21:30.710Z,7.67
2022-11-06T06:23:58.931Z,7.66
2022-11-06T06:26:27.017Z,7.58
2022-11-06T06:28:55.125Z,7.60
2022-11-06T06:31:24.787Z,7.66
2022-11-06T06:33:52.908Z,7.62
2022-11-06T06:36:21.035Z,7.56
2022-11-06T06:38:49.196Z,7.59
2022-11-06T06:41:17.512Z,7.56
2022-11-06T06:43:48.276Z,7.54
2022-11-06T06:46:17.070Z,7.46
2022-11-06T06:48:46.626Z,7.60
2022-11-06T06:51:18.432Z,7.94
2022-11-06T06:53:49.245Z,8.34
2022-11-06T06:56:17.362Z,8.69
2022-11-06T06:58:45.556Z,8.92
2022-11-06T07:01:13.732Z,9.03
2022-11-06T07:03:42.435Z,9.14
2022-11-06T07:06:12.772Z,9.10
2022-11-06T07:08:40.944Z,9.00
2022-11-06T07:11:11.900Z,8.88
2022-11-06T07:13:39.996Z,8.72
2022-11-06T07:16:10.636Z,8.75
2022-11-06T07:18:40.218Z,8.68
2022-11-06T07:21:10.296Z,8.65
2022-11-06T07:23:40.480Z,8.69
2022-11-06T07:26:08.740Z,8.60
2022-11-06T07:28:36.914Z,8.59
2022-11-06T07:31:07.997Z,8.61
2022-11-06T07:33:37.229Z,8.72
2022-11-06T07:36:07.114Z,8.67
2022-11-06T07:38:36.204Z,8.71
2022-11-06T07:41:09.098Z,8.78
2022-11-06T07:43:37.878Z,8.71
2022-11-06T07:46:10.024Z,8.76
2022-11-06T07:48:39.519Z,8.94
2022-11-06T07:51:11.111Z,9.08
2022-11-06T07:53:39.833Z,9.04
2022-11-06T07:56:09.972Z,9.11
2022-11-06T07:58:38.644Z,9.18
2022-11-06T08:01:07.489Z,9.24
2022-11-06T08:03:35.608Z,9.25
2022-11-06T08:06:05.923Z,9.24
2022-11-06T08:08:34.597Z,9.31
2022-11-06T08:11:04.571Z,9.33
2022-11-06T08:13:35.536Z,9.44
2022-11-06T08:16:08.216Z,9.49
2022-11-06T08:18:37.782Z,9.50
2022-11-06T08:21:07.608Z,9.58
2022-11-06T08:23:36.486Z,9.70
2022-11-06T08:26:07.014Z,9.79
2022-11-06T08:28:36.470Z,9.86
2022-11-06T08:31:06.334Z,9.90
2022-11-06T08:33:36.481Z,9.88
2022-11-06T08:36:05.678Z,10.00
2022-11-06T08:38:33.752Z,10.00
2022-11-06T08:41:06.692Z,10.07
2022-11-06T08:43:36.630Z,10.10
2022-11-06T08:46:05.907Z,10.14
2022-11-06T08:48:34.205Z,10.21
2022-11-06T08:51:02.634Z,10.25
2022-11-06T08:53:55.538Z,10.42
2022-11-06T08:56:24.339Z,10.44
2022-11-06T08:58:55.771Z,10.49
2022-11-06T09:01:24.901Z,10.59
2022-11-06T09:03:53.112Z,10.65
2022-11-06T09:06:21.265Z,10.82
2022-11-06T09:08:49.617Z,10.75
2022-11-06T09:11:17.724Z,10.82
2022-11-06T09:13:46.035Z,10.87
2022-11-06T09:16:16.330Z,10.84
2022-11-06T09:18:45.265Z,10.88
2022-11-06T09:21:13.409Z,10.97
2022-11-06T09:23:41.739Z,11.04
2022-11-06T09:26:09.866Z,11.05
2022-11-06T09:28:38.138Z,11.11
2022-11-06T09:31:06.562Z,11.28
2022-11-06T09:33:36.345Z,11.31
2022-11-06T09:36:06.310Z,11.39
2022-11-06T09:38:34.523Z,11.57
2022-11-06T09:41:03.961Z,11.59
2022-11-06T09:44:04.736Z,11.62
2022-11-06T09:46:40.486Z,11.64
2022-11-06T09:49:20.955Z,11.70
2022-11-06T09:51:56.846Z,11.78
2022-11-06T09:54:29.655Z,11.88
2022-11-06T09:57:03.378Z,12.00
2022-11-06T09:59:37.495Z,12.11
2022-11-06T10:02:27.346Z,12.20
2022-11-06T10:05:06.832Z,12.32
2022-11-06T10:07:37.649Z,12.31
2022-11-06T10:10:09.381Z,12.44
2022-11-06T10:12:59.679Z,12.44
2022-11-06T10:15:33.403Z,12.45
2022-11-06T10:18:13.618Z,12.47
2022-11-06T10:20:51.804Z,12.54
2022-11-06T10:23:27.037Z,12.61
2022-11-06T10:26:08.933Z,12.64
2022-11-06T10:29:04.078Z,12.77
2022-11-06T10:31:42.240Z,12.80
2022-11-06T10:34:18.190Z,12.81
2022-11-06T10:36:52.730Z,12.80
2022-11-06T10:39:25.896Z,12.88
2022-11-06T10:41:59.800Z,12.91
2022-11-06T10:44:34.604Z,12.96
2022-11-06T10:47:12.046Z,13.00
2022-11-06T10:49:47.464Z,13.08
2022-11-06T10:52:38.998Z,13.03
2022-11-06T10:55:48.746Z,12.99
2022-11-06T10:58:22.005Z,13.05
2022-11-06T11:00:51.865Z,13.19
2022-11-06T11:03:26.958Z,13.38
2022-11-06T11:05:55.713Z,13.59
2022-11-06T11:08:42.156Z,13.70
2022-11-06T11:11:25.738Z,13.83
2022-11-06T11:14:16.334Z,13.94
2022-11-06T11:16:47.824Z,14.13
2022-11-06T11:19:36.165Z,14.22
2022-11-06T11:22:09.448Z,14.28
2022-11-06T11:24:38.886Z,14.39
2022-11-06T11:27:08.575Z,14.53
2022-11-06T11:29:45.819Z,14.72
2022-11-06T11:32:18.436Z,14.68
2022-11-06T11:34:56.413Z,14.46
2022-11-06T11:37:28.471Z,14.48
2022-11-06T11:40:36.142Z,14.31
2022-11-06T11:43:24.800Z,14.27
2022-11-06T11:46:20.724Z,14.27
2022-11-06T11:48:51.777Z,14.24
2022-11-06T11:51:33.158Z,14.17
2022-11-06T11:54:21.608Z,14.22
2022-11-06T11:57:09.564Z,14.18
2022-11-06T11:59:46.283Z,14.23
2022-11-06T12:02:26.556Z,14.32
2022-11-06T12:04:59.557Z,14.30
2022-11-06T12:07:30.642Z,14.35
2022-11-06T12:10:00.832Z,14.39
2022-11-06T12:12:34.363Z,14.38
2022-11-06T12:15:19.906Z,14.40
2022-11-06T12:17:54.237Z,14.45
2022-11-06T12:20:28.856Z,14.49
2022-11-06T12:22:58.957Z,14.50
2022-11-06T12:25:34.435Z,14.51
2022-11-06T12:28:06.073Z,14.47
2022-11-06T12:30:36.271Z,14.43
2022-11-06T12:33:12.796Z,14.44
2022-11-06T12:35:48.278Z,14.36
2022-11-06T12:38:28.813Z,14.30
2022-11-06T12:41:02.275Z,14.26
2022-11-06T12:43:39.802Z,14.25
2022-11-06T12:46:23.982Z,14.19
2022-11-06T12:49:18.313Z,14.15
2022-11-06T12:52:04.804Z,14.16
2022-11-06T12:54:50.266Z,14.09
2022-11-06T12:57:31.244Z,14.10
2022-11-06T13:00:11.336Z,14.10
2022-11-06T13:03:16.108Z,14.11
2022-11-06T13:05:53.973Z,14.12
2022-11-06T13:08:36.571Z,14.17
2022-11-06T13:11:18.673Z,14.19
2022-11-06T13:14:15.557Z,14.18
2022-11-06T13:16:55.844Z,14.13
2022-11-06T13:19:35.709Z,14.17
2022-11-06T13:22:20.800Z,14.14
2022-11-06T13:24:57.115Z,14.15
2022-11-06T13:27:35.352Z,14.13
2022-11-06T13:30:14.326Z,14.13
2022-11-06T13:32:52.572Z,14.09
2022-11-06T13:35:23.519Z,14.04
2022-11-06T13:37:52.232Z,14.07
2022-11-06T13:40:28.877Z,13.98
2022-11-06T13:43:03.717Z,14.01
2022-11-06T13:45:44.586Z,14.06
2022-11-06T13:48:34.562Z,14.05
2022-11-06T13:51:16.519Z,14.02
2022-11-06T13:53:59.819Z,14.01
2022-11-06T13:56:54.102Z,14.00
2022-11-06T13:59:39.746Z,13.96
2022-11-06T14:02:32.581Z,13.89
2022-11-06T14:08:45.946Z,13.84
2022-11-06T14:11:17.606Z,13.82
2022-11-06T14:14:01.423Z,13.84
2022-11-06T14:16:33.584Z,13.84
2022-11-06T14:19:10.549Z,13.81
2022-11-06T14:21:53.020Z,13.82
2022-11-06T14:24:41.033Z,13.78
2022-11-06T14:27:34.274Z,13.74
2022-11-06T14:30:05.232Z,13.72
2022-11-06T14:32:48.125Z,13.72
2022-11-06T14:35:53.452Z,13.66
2022-11-06T14:38:39.216Z,13.66
2022-11-06T14:41:57.936Z,13.59
2022-11-06T14:44:40.332Z,13.59
2022-11-06T14:47:29.562Z,13.60
2022-11-06T14:50:01.444Z,13.57
2022-11-06T14:52:39.724Z,13.49
2022-11-06T14:55:09.678Z,13.51
2022-11-06T14:57:45.957Z,13.48
2022-11-06T15:00:32.578Z,13.52
2022-11-06T15:03:01.354Z,13.43
2022-11-06T15:05:31.376Z,13.43
2022-11-06T15:08:05.234Z,13.36
2022-11-06T15:10:53.668Z,13.32
2022-11-06T15:13:31.095Z,13.34
2022-11-06T15:16:13.365Z,13.30
2022-11-06T15:18:45.815Z,13.28
2022-11-06T15:21:23.411Z,13.21
2022-11-06T15:24:04.155Z,13.18
2022-11-06T15:26:38.762Z,13.16
2022-11-06T15:29:21.229Z,13.09
2022-11-06T15:32:01.338Z,13.07
2022-11-06T15:34:34.380Z,13.00
2022-11-06T15:37:12.265Z,13.02
2022-11-06T15:39:43.460Z,13.01
2022-11-06T15:42:18.781Z,13.02
2022-11-06T15:44:50.041Z,12.93
2022-11-06T15:47:24.387Z,12.92
2022-11-06T15:50:15.111Z,12.85
2022-11-06T15:52:43.746Z,12.82
2022-11-06T15:55:23.370Z,12.81
2022-11-06T15:57:52.298Z,12.79
2022-11-06T16:00:25.624Z,12.77
2022-11-06T16:03:03.047Z,12.69
2022-11-06T16:05:35.159Z,12.73
2022-11-06T16:08:04.518Z,12.68
2022-11-06T16:10:35.249Z,12.65
2022-11-06T16:13:04.713Z,12.61
2022-11-06T16:15:53.922Z,12.65
2022-11-06T16:18:27.800Z,12.58
2022-11-06T16:20:59.542Z,12.59
2022-11-06T16:23:38.817Z,12.61
2022-11-06T16:26:11.596Z,12.62
2022-11-06T16:28:45.076Z,12.61
2022-11-06T16:31:20.099Z,12.60
2022-11-06T16:33:59.952Z,12.60
2022-11-06T16:36:31.076Z,12.58
2022-11-06T16:39:50.717Z,12.60
2022-11-06T16:42:27.960Z,12.58
2022-11-06T16:45:18.758Z,12.55
2022-11-06T16:48:47.228Z,12.55
2022-11-06T16:51:30.460Z,12.51
2022-11-06T16:54:00.492Z,12.57
2022-11-06T16:56:31.546Z,12.58
2022-11-06T16:59:05.365Z,12.62
2022-11-06T17:01:40.974Z,12.50
2022-11-06T17:04:21.775Z,12.51
2022-11-06T17:06:52.317Z,12.55
2022-11-06T17:09:32.036Z,12.49
2022-11-06T17:12:02.490Z,12.47
2022-11-06T17:14:32.917Z,12.48
2022-11-06T17:17:02.720Z,12.49
2022-11-06T17:19:31.845Z,12.54
2022-11-06T17:22:01.353Z,12.58
2022-11-06T17:24:37.661Z,12.59
2022-11-06T17:27:06.877Z,12.57
2022-11-06T17:29:36.275Z,12.58
2022-11-06T17:32:04.952Z,12.57
2022-11-06T17:34:33.361Z,12.53
2022-11-06T17:37:02.844Z,12.59
2022-11-06T17:39:32.911Z,12.60
2022-11-06T17:42:01.118Z,12.54
2022-11-06T17:44:29.399Z,12.50
2022-11-06T17:46:57.521Z,12.59
2022-11-06T17:49:25.590Z,12.54
2022-11-06T17:52:00.527Z,12.55
2022-11-06T17:54:33.067Z,12.53
2022-11-06T17:57:03.294Z,12.63
2022-11-06T17:59:31.936Z,12.59
2022-11-06T18:02:00.553Z,12.59
2022-11-06T18:04:31.409Z,12.61
2022-11-06T18:06:59.548Z,12.55
2022-11-06T18:09:28.345Z,12.55
2022-11-06T18:11:58.011Z,12.48
2022-11-06T18:14:28.376Z,12.46
2022-11-06T18:16:56.526Z,12.52
2022-11-06T18:19:26.487Z,12.49
2022-11-06T18:21:58.267Z,12.52
2022-11-06T18:24:28.136Z,12.49
2022-11-06T18:26:57.646Z,12.49
2022-11-06T18:29:26.114Z,12.52
2022-11-06T18:31:54.186Z,12.52
2022-11-06T18:34:22.580Z,12.51
2022-11-06T18:36:51.473Z,12.62
2022-11-06T18:39:20.397Z,12.54
2022-11-06T18:41:48.814Z,12.62
2022-11-06T18:44:19.331Z,12.61
2022-11-06T18:46:48.249Z,12.55
2022-11-06T18:49:16.740Z,12.53
2022-11-06T18:51:45.788Z,12.60
2022-11-06T18:54:14.419Z,12.58
2022-11-06T18:56:42.669Z,12.53
2022-11-06T18:59:15.901Z,12.53
2022-11-06T19:01:45.522Z,12.48
2022-11-06T19:04:13.854Z,12.48
2022-11-06T19:06:42.372Z,12.50
2022-11-06T19:09:11.549Z,12.43
2022-11-06T19:11:40.148Z,12.49
2022-11-06T19:14:08.429Z,12.52
2022-11-06T19:16:36.587Z,12.53
2022-11-06T19:19:07.316Z,12.50
2022-11-06T19:21:35.641Z,12.46
2022-11-06T19:24:05.758Z,12.47
2022-11-06T19:26:36.255Z,12.46
2022-11-06T19:29:07.570Z,12.47
2022-11-06T19:31:37.334Z,12.45
2022-11-06T19:34:08.679Z,12.45
2022-11-06T19:36:37.281Z,12.40
2022-11-06T19:39:07.265Z,12.42
2022-11-06T19:41:35.957Z,12.45
2022-11-06T19:44:04.056Z,12.42
2022-11-06T19:46:36.075Z,12.53
2022-11-06T19:49:07.163Z,12.43
2022-11-06T19:51:37.480Z,12.46
2022-11-06T19:54:07.538Z,12.48
2022-11-06T19:56:35.887Z,12.45
2022-11-06T19:59:04.494Z,12.31
2022-11-06T20:01:34.419Z,12.36
2022-11-06T20:04:02.744Z,12.43
2022-11-06T20:06:32.290Z,12.44
2022-11-06T20:09:00.413Z,12.59
2022-11-06T20:11:28.489Z,12.79
2022-11-06T20:13:56.927Z,12.95
2022-11-06T20:16:25.024Z,13.05
2022-11-06T20:18:54.457Z,13.15
2022-11-06T20:21:23.783Z,13.22
2022-11-06T20:23:53.488Z,13.23
2022-11-06T20:26:23.016Z,13.33
2022-11-06T20:28:51.906Z,13.41
2022-11-06T20:31:20.613Z,13.32
2022-11-06T20:33:49.554Z,13.23
2022-11-06T20:36:23.073Z,13.11
2022-11-06T20:38:55.290Z,13.05
2022-11-06T20:41:24.798Z,12.95
2022-11-06T20:43:54.449Z,12.85
2022-11-06T20:46:23.877Z,12.84
2022-11-06T20:48:52.230Z,12.77
2022-11-06T20:51:22.858Z,12.75
2022-11-06T20:53:52.831Z,12.74
2022-11-06T20:56:26.082Z,12.68
2022-11-06T20:58:56.327Z,12.67
2022-11-06T21:01:30.847Z,12.65
2022-11-06T21:03:59.368Z,12.68
2022-11-06T21:06:29.866Z,12.68
2022-11-06T21:08:59.510Z,12.69
2022-11-06T21:11:29.850Z,12.70
2022-11-06T21:13:57.985Z,12.68
2022-11-06T21:16:28.349Z,12.67
2022-11-06T21:18:56.642Z,12.66
2022-11-06T21:21:28.220Z,12.61
2022-11-06T21:23:57.183Z,12.78
2022-11-06T21:26:29.395Z,12.63
2022-11-06T21:28:58.345Z,12.67
2022-11-06T21:31:30.689Z,12.81
2022-11-06T21:34:02.167Z,12.79
2022-11-06T21:36:33.044Z,12.77
2022-11-06T21:39:04.425Z,12.83
2022-11-06T21:41:34.631Z,12.83
2022-11-06T21:44:03.525Z,12.85
2022-11-06T21:46:31.699Z,12.78
2022-11-06T21:49:00.224Z,12.83
2022-11-06T21:51:31.550Z,12.96
2022-11-06T21:54:17.869Z,13.01
2022-11-06T21:56:49.419Z,12.96
2022-11-06T21:59:20.651Z,12.91
2022-11-06T22:01:48.954Z,12.96
2022-11-06T22:04:17.853Z,12.93
2022-11-06T22:06:46.014Z,12.98
2022-11-06T22:09:16.591Z,13.05
2022-11-06T22:11:47.903Z,13.03
2022-11-06T22:14:17.856Z,13.00
2022-11-06T22:16:48.046Z,12.98
2022-11-06T22:19:17.559Z,13.01
2022-11-06T22:21:46.003Z,13.02
2022-11-06T22:24:15.984Z,13.09
2022-11-06T22:26:44.138Z,13.13
2022-11-06T22:29:15.357Z,13.09
2022-11-06T22:31:43.566Z,12.99
2022-11-06T22:34:12.182Z,12.97
2022-11-06T22:36:41.274Z,13.04
2022-11-06T22:39:11.400Z,13.06
2022-11-06T22:41:40.098Z,13.10
2022-11-06T22:44:08.832Z,13.11
2022-11-06T22:46:38.366Z,13.10
2022-11-06T22:49:07.438Z,13.10
2022-11-06T22:51:36.043Z,13.10
2022-11-06T22:54:04.477Z,13.06
2022-11-06T22:56:33.694Z,13.00
2022-11-06T22:59:07.711Z,13.11
2022-11-06T23:01:41.802Z,13.06
2022-11-06T23:04:16.047Z,13.10
2022-11-06T23:06:45.967Z,13.01
2022-11-06T23:09:14.450Z,12.99
2022-11-06T23:11:45.319Z,12.97
2022-11-06T23:14:13.386Z,13.07
2022-11-06T23:17:00.721Z,12.99
2022-11-06T23:19:32.705Z,13.03
2022-11-06T23:22:18.991Z,13.04
2022-11-06T23:24:47.321Z,12.89
2022-11-06T23:27:15.553Z,12.89
2022-11-06T23:29:43.595Z,13.03
2022-11-06T23:32:11.732Z,13.07
2022-11-06T23:34:41.074Z,13.08
2022-11-06T23:37:09.929Z,12.99
2022-11-06T23:39:38.212Z,13.06
2022-11-06T23:42:06.504Z,13.05
2022-11-06T23:44:51.996Z,13.05
2022-11-06T23:47:20.159Z,13.03
2022-11-06T23:49:49.587Z,12.93
2022-11-06T23:52:17.815Z,12.96
2022-11-06T23:54:46.108Z,12.86
2022-11-06T23:57:14.903Z,12.98
2022-11-06T23:59:43.799Z,13.08
